Historique des stations

Station météo de Romilly-sur-Aigre

Altitude de la station : 111 m







Données météorologiques pour le 26/05/2022
Date
Heure
Températures Humidité Point de rosée Vitesse
du vent
Direction Rafales Windchill Pression Pluviométrie
Cumul
Date
Heure
Températures Humidité Point de rosée Vitesse
du vent
Direction Rafales Windchill Pression Pluviométrie
Cumul
26/05/2022 13:1618.8 °C71 %13.5 °C6 km/hONO13 km/h13.51026 hPa0.0 mm
26/05/2022 13:1118.9 °C73 %13.9 °C5 km/hNW15 km/h13.91027 hPa0.0 mm
26/05/2022 13:0118.8 °C72 %13.6 °C10 km/hO16 km/h13.61027 hPa0.0 mm
26/05/2022 12:5618.6 °C74 %13.8 °C3 km/hOSO19 km/h13.81027 hPa0.0 mm
26/05/2022 12:4618.8 °C69 %13.0 °C5 km/hO13 km/h13.01027 hPa0.0 mm
26/05/2022 12:4118.6 °C72 %13.4 °C5 km/hSO11 km/h13.41027 hPa0.0 mm
26/05/2022 12:3117.9 °C76 %13.6 °C5 km/hO11 km/h13.61027 hPa0.0 mm
26/05/2022 12:2617.7 °C73 %12.8 °C3 km/hO15 km/h12.81027 hPa0.0 mm
26/05/2022 12:1617.8 °C74 %13.1 °C6 km/hO15 km/h13.11027 hPa0.0 mm
26/05/2022 12:1118.1 °C72 %13.0 °C5 km/hONO15 km/h13.01027 hPa0.0 mm
26/05/2022 12:0117.8 °C75 %13.3 °C6 km/hNO16 km/h13.31026 hPa0.0 mm
26/05/2022 11:5617.8 °C73 %12.9 °C2 km/hNW13 km/h12.91026 hPa0.0 mm
26/05/2022 11:4617.8 °C74 %13.1 °C5 km/hNO13 km/h13.11026 hPa0.0 mm
26/05/2022 11:4117.8 °C76 %13.5 °C8 km/hNW16 km/h13.51026 hPa0.0 mm
26/05/2022 11:3117.5 °C75 %13.0 °C11 km/hO19 km/h13.01026 hPa0.0 mm
26/05/2022 11:2617.3 °C74 %12.6 °C13 km/hONO19 km/h12.61026 hPa0.0 mm
26/05/2022 11:1616.8 °C77 %12.8 °C8 km/hNO18 km/h12.81026 hPa0.0 mm
26/05/2022 11:1116.7 °C77 %12.6 °C8 km/hNW18 km/h12.61026 hPa0.0 mm
26/05/2022 11:0116.6 °C78 %12.7 °C8 km/hONO16 km/h12.71026 hPa0.0 mm
26/05/2022 10:5616.4 °C78 %12.6 °C11 km/hONO19 km/h12.61026 hPa0.0 mm
26/05/2022 10:4616.7 °C78 %12.8 °C8 km/hONO16 km/h12.81026 hPa0.0 mm
26/05/2022 10:4116.8 °C77 %12.7 °C5 km/hONO16 km/h12.71026 hPa0.0 mm
26/05/2022 10:3116.7 °C79 %13.0 °C10 km/hONO16 km/h13.01026 hPa0.0 mm
26/05/2022 10:2616.6 °C77 %12.6 °C5 km/hONO19 km/h12.61026 hPa0.0 mm
26/05/2022 10:1616.8 °C77 %12.8 °C11 km/hO23 km/h12.81026 hPa0.0 mm
26/05/2022 10:1116.7 °C79 %13.0 °C18 km/hO23 km/h13.01026 hPa0.0 mm
26/05/2022 10:0116.1 °C82 %13.0 °C8 km/hONO15 km/h13.01026 hPa0.0 mm
26/05/2022 09:5615.8 °C83 %12.9 °C8 km/hONO15 km/h12.91026 hPa0.0 mm
26/05/2022 09:4615.5 °C82 %12.4 °C10 km/hO21 km/h12.41026 hPa0.0 mm
26/05/2022 09:4115.6 °C82 %12.5 °C6 km/hO16 km/h12.51026 hPa0.0 mm
26/05/2022 09:3115.6 °C82 %12.5 °C11 km/hO18 km/h12.51026 hPa0.0 mm
26/05/2022 09:2615.6 °C82 %12.5 °C16 km/hO18 km/h12.51026 hPa0.0 mm
26/05/2022 09:1615.3 °C82 %12.3 °C8 km/hONO18 km/h12.31025 hPa0.0 mm
26/05/2022 09:1115.2 °C82 %12.2 °C6 km/hO18 km/h12.21025 hPa0.0 mm
26/05/2022 09:0114.9 °C83 %12.1 °C8 km/hONO21 km/h12.11025 hPa0.0 mm
26/05/2022 08:5614.9 °C84 %12.2 °C5 km/hONO21 km/h12.21025 hPa0.0 mm
26/05/2022 08:4614.6 °C84 %11.9 °C10 km/hONO21 km/h11.91025 hPa0.0 mm
26/05/2022 08:4114.6 °C85 %12.1 °C18 km/hONO18 km/h12.11025 hPa0.0 mm
26/05/2022 08:3114.3 °C88 %12.3 °C8 km/hNO16 km/h12.31025 hPa0.0 mm
26/05/2022 08:2614.2 °C88 %12.2 °C6 km/hONO16 km/h12.21025 hPa0.0 mm
26/05/2022 08:1613.9 °C88 %11.9 °C6 km/hONO15 km/h11.91025 hPa0.0 mm
26/05/2022 08:1113.8 °C89 %12.1 °C11 km/hONO15 km/h12.11025 hPa0.0 mm
26/05/2022 08:0113.8 °C90 %12.2 °C5 km/hONO11 km/h12.21025 hPa0.0 mm
26/05/2022 07:5613.7 °C91 %12.3 °C3 km/hNW13 km/h12.31025 hPa0.0 mm
26/05/2022 07:4613.6 °C91 %12.2 °C5 km/hONO11 km/h12.21024 hPa0.0 mm
26/05/2022 07:4113.6 °C92 %12.3 °C5 km/hO11 km/h12.31025 hPa0.0 mm
26/05/2022 07:3113.4 °C92 %12.2 °C5 km/hO10 km/h12.21024 hPa0.0 mm
26/05/2022 07:2613.4 °C93 %12.3 °C3 km/hO10 km/h12.31024 hPa0.0 mm
26/05/2022 07:1613.3 °C93 %12.2 °C3 km/hO6 km/h12.21024 hPa0.0 mm
26/05/2022 07:1113.3 °C93 %12.2 °C6 km/hOSO6 km/h12.21024 hPa0.0 mm
26/05/2022 07:0113.2 °C93 %12.1 °C3 km/hO6 km/h12.11024 hPa0.0 mm
26/05/2022 06:5613.2 °C93 %12.1 °C3 km/hO10 km/h12.11024 hPa0.0 mm
26/05/2022 06:4613.1 °C93 %12.0 °C5 km/hO10 km/h12.01024 hPa0.0 mm
26/05/2022 06:4113.1 °C93 %11.9 °C5 km/hO11 km/h11.91024 hPa0.0 mm
26/05/2022 06:3112.9 °C94 %12.0 °C3 km/hO10 km/h12.01024 hPa0.0 mm
26/05/2022 06:2612.9 °C94 %11.9 °C3 km/hONO10 km/h11.91024 hPa0.0 mm
26/05/2022 06:1612.8 °C93 %11.7 °C2 km/hO5 km/h11.71024 hPa0.0 mm
26/05/2022 06:1112.8 °C93 %11.7 °C-O8 km/h11.71024 hPa0.0 mm
26/05/2022 06:0112.8 °C93 %11.7 °C2 km/hO6 km/h11.71024 hPa0.0 mm
26/05/2022 05:5612.8 °C93 %11.7 °C-OSO6 km/h11.71024 hPa0.0 mm
26/05/2022 05:4612.8 °C93 %11.7 °C3 km/hOSO5 km/h11.71024 hPa0.0 mm
26/05/2022 05:4112.8 °C93 %11.7 °C-OSO10 km/h11.71023 hPa0.0 mm
26/05/2022 05:3112.9 °C93 %11.8 °C3 km/hO10 km/h11.81024 hPa0.0 mm
26/05/2022 05:2612.8 °C93 %11.7 °C2 km/hOSO10 km/h11.71024 hPa0.0 mm
26/05/2022 05:1612.8 °C93 %11.7 °C3 km/hO10 km/h11.71024 hPa0.0 mm
26/05/2022 05:1112.8 °C93 %11.7 °C3 km/hOSO6 km/h11.71023 hPa0.0 mm
26/05/2022 05:0112.8 °C93 %11.7 °C2 km/hOSO5 km/h11.71023 hPa0.0 mm
26/05/2022 04:5612.8 °C93 %11.7 °C3 km/hOSO5 km/h11.71023 hPa0.0 mm
26/05/2022 04:4612.8 °C93 %11.7 °C3 km/hOSO6 km/h11.71023 hPa0.0 mm
26/05/2022 04:4112.8 °C92 %11.5 °C5 km/hOSO6 km/h11.51023 hPa0.0 mm
26/05/2022 04:3112.9 °C92 %11.7 °C3 km/hOSO6 km/h11.71023 hPa0.0 mm
26/05/2022 04:2612.9 °C92 %11.7 °C3 km/hOSO8 km/h11.71023 hPa0.0 mm
26/05/2022 04:1613.0 °C92 %11.7 °C3 km/hOSO8 km/h11.71023 hPa0.0 mm
26/05/2022 04:1113.1 °C92 %11.8 °C3 km/hOSO6 km/h11.81024 hPa0.0 mm
26/05/2022 04:0113.2 °C92 %11.9 °C3 km/hOSO6 km/h11.91024 hPa0.0 mm
26/05/2022 03:5613.2 °C92 %11.9 °C3 km/hSO6 km/h11.91024 hPa0.0 mm
26/05/2022 03:4613.2 °C91 %11.8 °C---11.81024 hPa0.0 mm
26/05/2022 03:4113.2 °C91 %11.8 °C---11.81023 hPa0.0 mm
26/05/2022 03:3113.2 °C91 %11.8 °C---11.81023 hPa0.0 mm
26/05/2022 03:2613.2 °C91 %11.8 °C---11.81023 hPa0.0 mm
26/05/2022 03:1613.3 °C91 %11.8 °C2 km/hOSO6 km/h11.81023 hPa0.0 mm
26/05/2022 03:1113.3 °C92 %12.0 °C3 km/hSO11 km/h12.01023 hPa0.0 mm
26/05/2022 03:0113.3 °C92 %12.0 °C3 km/hOSO10 km/h12.01023 hPa0.0 mm
26/05/2022 02:5613.3 °C92 %12.1 °C3 km/hOSO8 km/h12.11023 hPa0.0 mm
26/05/2022 02:4613.3 °C91 %11.9 °C3 km/hSO8 km/h11.91023 hPa0.0 mm
26/05/2022 02:4113.4 °C92 %12.1 °C3 km/hSO8 km/h12.11023 hPa0.0 mm
26/05/2022 02:3113.4 °C91 %12.0 °C3 km/hO10 km/h12.01023 hPa0.0 mm
26/05/2022 02:2613.5 °C91 %12.1 °C5 km/hOSO10 km/h12.11023 hPa0.0 mm
26/05/2022 02:1613.6 °C91 %12.2 °C5 km/hO15 km/h12.21023 hPa0.0 mm
26/05/2022 02:1113.7 °C90 %12.1 °C3 km/hO16 km/h12.11023 hPa0.0 mm
26/05/2022 02:0113.8 °C89 %12.1 °C8 km/hONO18 km/h12.11024 hPa0.0 mm
26/05/2022 01:5613.9 °C90 %12.3 °C6 km/hOSO15 km/h12.31024 hPa0.0 mm
26/05/2022 01:4614.0 °C90 %12.4 °C3 km/hONO10 km/h12.41024 hPa0.0 mm
26/05/2022 01:4114.0 °C90 %12.4 °C3 km/hO10 km/h12.41024 hPa0.0 mm
26/05/2022 01:3114.2 °C89 %12.4 °C5 km/hONO16 km/h12.41023 hPa0.0 mm
26/05/2022 01:2614.3 °C89 %12.5 °C-NW15 km/h12.51023 hPa0.0 mm
26/05/2022 01:1614.4 °C88 %12.5 °C5 km/hONO15 km/h12.51023 hPa0.0 mm
26/05/2022 01:1114.4 °C87 %12.3 °C11 km/hONO11 km/h12.31023 hPa0.0 mm
26/05/2022 01:0114.3 °C85 %11.8 °C3 km/hOSO6 km/h11.81023 hPa0.0 mm
26/05/2022 00:5614.3 °C85 %11.8 °C-OSO6 km/h11.81023 hPa0.0 mm
26/05/2022 00:4614.3 °C85 %11.8 °C2 km/hOSO8 km/h11.81023 hPa0.0 mm
26/05/2022 00:4114.4 °C85 %11.9 °C2 km/hSO8 km/h11.91023 hPa0.0 mm
26/05/2022 00:3114.4 °C84 %11.8 °C3 km/hOSO10 km/h11.81023 hPa0.0 mm
26/05/2022 00:2614.5 °C84 %11.8 °C3 km/hOSO10 km/h11.81023 hPa0.0 mm
26/05/2022 00:1614.6 °C84 %11.9 °C2 km/hOSO6 km/h11.91023 hPa0.0 mm
26/05/2022 00:1114.6 °C84 %11.9 °C-O5 km/h11.91023 hPa0.0 mm
26/05/2022 00:0114.6 °C83 %11.7 °C-SO6 km/h11.71023 hPa0.0 mm


Minima :

Température : 12.8 °C
Humidité : 69 %
Point de rosée : 11.5 °C
Vent moyen : 2 km/h
Windchill : 11.5
Pression atm. : 1023 hPa
Maxima :

Température : 18.9 °C
Humidité : 94 %
Point de rosée : 13.9 °C
Vent moyen : 18 km/h
Windchill : 13.9
Pression atm. : 1027 hPa
Rafales max : 23 km/h
Cumul de pluie sur 24H : 0 mm

Romilly-sur-Aigre est une commune du département Eure-et-Loir (28).
La station météorologique du réseau de l'association la plus proche de Romilly-sur-Aigre est celle de Mainvilliers
Site du propriétaire de la station : http://www.sohade.fr



Icône Facebook Association Météo Centre Icône Twitter Association Météo Centre Icône Chaîne Youtube Association Météo Centre Icône contact Association Météo Centre Icône Insta Association Météo Centre